sensor_id;sensor_type;location;lat;lon;timestamp;P1;durP1;ratioP1;P2;durP2;ratioP2
75169;SDS011;63749;49.186;9.222;2022-12-18T00:01:00;72.88;;;25.73;;
75169;SDS011;63749;49.186;9.222;2022-12-18T00:03:37;99.38;;;35.45;;
75169;SDS011;63749;49.186;9.222;2022-12-18T00:06:02;113.35;;;37.80;;
75169;SDS011;63749;49.186;9.222;2022-12-18T00:08:28;112.20;;;36.23;;
75169;SDS011;63749;49.186;9.222;2022-12-18T00:10:53;112.20;;;34.90;;
75169;SDS011;63749;49.186;9.222;2022-12-18T00:13:19;112.33;;;34.33;;
75169;SDS011;63749;49.186;9.222;2022-12-18T00:15:44;103.97;;;34.13;;
75169;SDS011;63749;49.186;9.222;2022-12-18T00:18:10;93.57;;;31.67;;
75169;SDS011;63749;49.186;9.222;2022-12-18T00:20:36;103.13;;;32.78;;
75169;SDS011;63749;49.186;9.222;2022-12-18T00:23:02;100.13;;;32.70;;
75169;SDS011;63749;49.186;9.222;2022-12-18T00:25:27;92.15;;;31.10;;
75169;SDS011;63749;49.186;9.222;2022-12-18T00:27:52;97.43;;;31.55;;
75169;SDS011;63749;49.186;9.222;2022-12-18T00:30:18;91.50;;;31.77;;
75169;SDS011;63749;49.186;9.222;2022-12-18T00:32:43;93.00;;;31.30;;
75169;SDS011;63749;49.186;9.222;2022-12-18T00:35:09;87.00;;;31.63;;
75169;SDS011;63749;49.186;9.222;2022-12-18T00:37:34;87.43;;;31.70;;
75169;SDS011;63749;49.186;9.222;2022-12-18T00:39:59;94.47;;;31.50;;
75169;SDS011;63749;49.186;9.222;2022-12-18T00:42:25;91.55;;;32.47;;
75169;SDS011;63749;49.186;9.222;2022-12-18T00:45:09;94.53;;;30.88;;
75169;SDS011;63749;49.186;9.222;2022-12-18T00:47:35;94.80;;;31.50;;
75169;SDS011;63749;49.186;9.222;2022-12-18T00:50:00;94.87;;;32.63;;
75169;SDS011;63749;49.186;9.222;2022-12-18T00:52:27;87.88;;;30.45;;
75169;SDS011;63749;49.186;9.222;2022-12-18T00:54:52;91.83;;;31.13;;
75169;SDS011;63749;49.186;9.222;2022-12-18T00:57:17;83.40;;;30.70;;
75169;SDS011;63749;49.186;9.222;2022-12-18T00:59:43;84.77;;;30.20;;
75169;SDS011;63749;49.186;9.222;2022-12-18T01:02:08;85.07;;;29.77;;
75169;SDS011;63749;49.186;9.222;2022-12-18T01:04:33;86.90;;;31.23;;
75169;SDS011;63749;49.186;9.222;2022-12-18T01:06:59;84.93;;;29.58;;
75169;SDS011;63749;49.186;9.222;2022-12-18T01:09:24;85.77;;;29.00;;
75169;SDS011;63749;49.186;9.222;2022-12-18T01:11:50;96.10;;;33.17;;
75169;SDS011;63749;49.186;9.222;2022-12-18T01:14:15;88.43;;;31.00;;
75169;SDS011;63749;49.186;9.222;2022-12-18T01:16:40;91.40;;;32.10;;
75169;SDS011;63749;49.186;9.222;2022-12-18T01:19:06;94.57;;;33.43;;
75169;SDS011;63749;49.186;9.222;2022-12-18T01:21:31;93.10;;;32.58;;
75169;SDS011;63749;49.186;9.222;2022-12-18T01:23:56;95.28;;;33.13;;
75169;SDS011;63749;49.186;9.222;2022-12-18T01:26:22;86.60;;;29.17;;
75169;SDS011;63749;49.186;9.222;2022-12-18T01:28:48;84.82;;;30.45;;
75169;SDS011;63749;49.186;9.222;2022-12-18T01:31:15;79.07;;;28.67;;
75169;SDS011;63749;49.186;9.222;2022-12-18T01:33:43;74.35;;;27.27;;
75169;SDS011;63749;49.186;9.222;2022-12-18T01:36:14;83.43;;;27.42;;
75169;SDS011;63749;49.186;9.222;2022-12-18T01:38:46;72.20;;;27.77;;
75169;SDS011;63749;49.186;9.222;2022-12-18T01:41:13;78.18;;;28.75;;
75169;SDS011;63749;49.186;9.222;2022-12-18T01:43:47;86.90;;;29.40;;
75169;SDS011;63749;49.186;9.222;2022-12-18T01:46:21;77.75;;;27.05;;
75169;SDS011;63749;49.186;9.222;2022-12-18T01:48:51;89.55;;;31.33;;
75169;SDS011;63749;49.186;9.222;2022-12-18T01:51:21;88.00;;;31.63;;
75169;SDS011;63749;49.186;9.222;2022-12-18T01:53:48;85.53;;;29.35;;
75169;SDS011;63749;49.186;9.222;2022-12-18T01:56:15;78.40;;;27.13;;
75169;SDS011;63749;49.186;9.222;2022-12-18T02:01:23;76.03;;;27.43;;
75169;SDS011;63749;49.186;9.222;2022-12-18T02:03:50;79.47;;;27.42;;
75169;SDS011;63749;49.186;9.222;2022-12-18T02:06:19;77.63;;;27.08;;
75169;SDS011;63749;49.186;9.222;2022-12-18T02:28:28;80.85;;;26.70;;
75169;SDS011;63749;49.186;9.222;2022-12-18T02:30:56;80.93;;;28.63;;
75169;SDS011;63749;49.186;9.222;2022-12-18T02:33:26;88.70;;;29.35;;
75169;SDS011;63749;49.186;9.222;2022-12-18T02:35:53;79.95;;;28.75;;
75169;SDS011;63749;49.186;9.222;2022-12-18T02:38:19;72.00;;;25.65;;
75169;SDS011;63749;49.186;9.222;2022-12-18T02:40:45;73.30;;;26.50;;
75169;SDS011;63749;49.186;9.222;2022-12-18T02:43:13;67.03;;;25.03;;
75169;SDS011;63749;49.186;9.222;2022-12-18T02:45:46;77.65;;;27.55;;
75169;SDS011;63749;49.186;9.222;2022-12-18T02:48:26;78.80;;;28.08;;
75169;SDS011;63749;49.186;9.222;2022-12-18T02:56:35;67.38;;;25.60;;
75169;SDS011;63749;49.186;9.222;2022-12-18T02:59:06;69.38;;;24.63;;
75169;SDS011;63749;49.186;9.222;2022-12-18T03:01:43;80.35;;;27.20;;
75169;SDS011;63749;49.186;9.222;2022-12-18T03:04:19;74.90;;;26.60;;
75169;SDS011;63749;49.186;9.222;2022-12-18T03:06:55;69.35;;;25.10;;
75169;SDS011;63749;49.186;9.222;2022-12-18T03:09:38;77.15;;;27.70;;
75169;SDS011;63749;49.186;9.222;2022-12-18T03:12:12;76.70;;;27.90;;
75169;SDS011;63749;49.186;9.222;2022-12-18T03:14:54;67.60;;;24.30;;
75169;SDS011;63749;49.186;9.222;2022-12-18T03:17:40;80.90;;;26.67;;
75169;SDS011;63749;49.186;9.222;2022-12-18T03:20:10;71.10;;;25.13;;
75169;SDS011;63749;49.186;9.222;2022-12-18T03:22:40;69.68;;;25.35;;
75169;SDS011;63749;49.186;9.222;2022-12-18T03:25:08;77.57;;;27.73;;
75169;SDS011;63749;49.186;9.222;2022-12-18T03:27:39;77.07;;;26.15;;
75169;SDS011;63749;49.186;9.222;2022-12-18T03:30:08;84.10;;;29.33;;
75169;SDS011;63749;49.186;9.222;2022-12-18T03:32:54;80.90;;;28.02;;
75169;SDS011;63749;49.186;9.222;2022-12-18T03:35:28;72.32;;;26.10;;
75169;SDS011;63749;49.186;9.222;2022-12-18T03:37:57;71.15;;;25.20;;
75169;SDS011;63749;49.186;9.222;2022-12-18T03:40:25;74.13;;;25.67;;
75169;SDS011;63749;49.186;9.222;2022-12-18T03:42:58;82.55;;;25.80;;
75169;SDS011;63749;49.186;9.222;2022-12-18T03:45:37;67.72;;;25.08;;
75169;SDS011;63749;49.186;9.222;2022-12-18T03:48:07;64.85;;;23.10;;
75169;SDS011;63749;49.186;9.222;2022-12-18T03:50:39;76.78;;;25.10;;
75169;SDS011;63749;49.186;9.222;2022-12-18T03:55:52;70.82;;;25.05;;
75169;SDS011;63749;49.186;9.222;2022-12-18T03:58:19;68.68;;;24.38;;
75169;SDS011;63749;49.186;9.222;2022-12-18T04:00:48;68.50;;;24.63;;
75169;SDS011;63749;49.186;9.222;2022-12-18T04:03:16;70.57;;;24.42;;
75169;SDS011;63749;49.186;9.222;2022-12-18T04:05:43;71.85;;;25.67;;
75169;SDS011;63749;49.186;9.222;2022-12-18T04:08:10;61.65;;;22.95;;
75169;SDS011;63749;49.186;9.222;2022-12-18T04:10:35;69.90;;;24.07;;
75169;SDS011;63749;49.186;9.222;2022-12-18T04:13:01;66.15;;;24.23;;
75169;SDS011;63749;49.186;9.222;2022-12-18T04:15:27;65.07;;;22.70;;
75169;SDS011;63749;49.186;9.222;2022-12-18T04:17:52;68.17;;;24.43;;
75169;SDS011;63749;49.186;9.222;2022-12-18T04:20:17;69.87;;;24.73;;
75169;SDS011;63749;49.186;9.222;2022-12-18T04:22:43;71.43;;;25.10;;
75169;SDS011;63749;49.186;9.222;2022-12-18T04:25:12;74.72;;;24.30;;
75169;SDS011;63749;49.186;9.222;2022-12-18T04:27:38;71.93;;;23.88;;
75169;SDS011;63749;49.186;9.222;2022-12-18T04:30:04;77.67;;;24.73;;
75169;SDS011;63749;49.186;9.222;2022-12-18T04:32:29;67.82;;;24.27;;
75169;SDS011;63749;49.186;9.222;2022-12-18T04:34:55;76.25;;;26.15;;
75169;SDS011;63749;49.186;9.222;2022-12-18T04:37:21;73.57;;;23.53;;
75169;SDS011;63749;49.186;9.222;2022-12-18T04:39:46;69.97;;;25.17;;
75169;SDS011;63749;49.186;9.222;2022-12-18T04:42:11;68.70;;;23.53;;
75169;SDS011;63749;49.186;9.222;2022-12-18T04:44:37;69.30;;;24.93;;
75169;SDS011;63749;49.186;9.222;2022-12-18T04:47:02;77.63;;;26.30;;
75169;SDS011;63749;49.186;9.222;2022-12-18T04:49:28;72.53;;;24.50;;
75169;SDS011;63749;49.186;9.222;2022-12-18T04:51:53;75.03;;;24.23;;
75169;SDS011;63749;49.186;9.222;2022-12-18T04:54:21;63.10;;;22.67;;
75169;SDS011;63749;49.186;9.222;2022-12-18T04:56:46;70.43;;;24.88;;
75169;SDS011;63749;49.186;9.222;2022-12-18T04:59:12;63.63;;;23.40;;
75169;SDS011;63749;49.186;9.222;2022-12-18T05:01:37;68.40;;;24.33;;
75169;SDS011;63749;49.186;9.222;2022-12-18T05:04:02;73.97;;;26.97;;
75169;SDS011;63749;49.186;9.222;2022-12-18T05:06:28;76.30;;;26.55;;
75169;SDS011;63749;49.186;9.222;2022-12-18T05:08:54;77.77;;;25.77;;
75169;SDS011;63749;49.186;9.222;2022-12-18T05:11:19;70.65;;;24.45;;
75169;SDS011;63749;49.186;9.222;2022-12-18T05:13:45;70.18;;;24.98;;
75169;SDS011;63749;49.186;9.222;2022-12-18T05:16:10;77.30;;;24.83;;
75169;SDS011;63749;49.186;9.222;2022-12-18T05:18:37;81.60;;;27.55;;
75169;SDS011;63749;49.186;9.222;2022-12-18T05:21:02;81.80;;;27.10;;
75169;SDS011;63749;49.186;9.222;2022-12-18T05:23:28;71.63;;;24.47;;
75169;SDS011;63749;49.186;9.222;2022-12-18T05:25:54;63.15;;;22.98;;
75169;SDS011;63749;49.186;9.222;2022-12-18T05:28:22;68.90;;;24.30;;
75169;SDS011;63749;49.186;9.222;2022-12-18T05:30:52;68.18;;;23.88;;
75169;SDS011;63749;49.186;9.222;2022-12-18T05:33:19;65.90;;;23.50;;
75169;SDS011;63749;49.186;9.222;2022-12-18T05:35:56;72.97;;;23.17;;
75169;SDS011;63749;49.186;9.222;2022-12-18T05:38:23;74.53;;;24.90;;
75169;SDS011;63749;49.186;9.222;2022-12-18T05:40:50;74.28;;;25.15;;
75169;SDS011;63749;49.186;9.222;2022-12-18T05:43:17;74.90;;;26.27;;
75169;SDS011;63749;49.186;9.222;2022-12-18T05:45:43;68.20;;;24.50;;
75169;SDS011;63749;49.186;9.222;2022-12-18T05:48:09;86.68;;;31.25;;
75169;SDS011;63749;49.186;9.222;2022-12-18T05:50:39;95.37;;;31.70;;
75169;SDS011;63749;49.186;9.222;2022-12-18T05:53:05;83.97;;;29.10;;
75169;SDS011;63749;49.186;9.222;2022-12-18T05:55:34;89.50;;;29.52;;
75169;SDS011;63749;49.186;9.222;2022-12-18T05:58:01;68.93;;;24.77;;
75169;SDS011;63749;49.186;9.222;2022-12-18T06:00:28;67.63;;;23.73;;
75169;SDS011;63749;49.186;9.222;2022-12-18T06:02:53;71.13;;;24.97;;
75169;SDS011;63749;49.186;9.222;2022-12-18T06:05:19;71.50;;;23.90;;
75169;SDS011;63749;49.186;9.222;2022-12-18T06:07:44;71.00;;;24.83;;
75169;SDS011;63749;49.186;9.222;2022-12-18T06:10:09;61.97;;;23.52;;
75169;SDS011;63749;49.186;9.222;2022-12-18T06:12:35;65.57;;;22.92;;
75169;SDS011;63749;49.186;9.222;2022-12-18T06:15:01;66.30;;;23.57;;
75169;SDS011;63749;49.186;9.222;2022-12-18T06:17:27;69.07;;;24.45;;
75169;SDS011;63749;49.186;9.222;2022-12-18T06:19:54;76.20;;;26.25;;
75169;SDS011;63749;49.186;9.222;2022-12-18T06:22:21;75.90;;;25.42;;
75169;SDS011;63749;49.186;9.222;2022-12-18T06:24:46;72.60;;;25.43;;
75169;SDS011;63749;49.186;9.222;2022-12-18T06:27:11;69.23;;;24.57;;
75169;SDS011;63749;49.186;9.222;2022-12-18T06:29:37;71.20;;;24.70;;
75169;SDS011;63749;49.186;9.222;2022-12-18T06:32:02;69.28;;;23.10;;
75169;SDS011;63749;49.186;9.222;2022-12-18T06:34:30;68.95;;;22.55;;
75169;SDS011;63749;49.186;9.222;2022-12-18T06:36:56;66.40;;;23.55;;
75169;SDS011;63749;49.186;9.222;2022-12-18T06:39:21;66.60;;;23.42;;
75169;SDS011;63749;49.186;9.222;2022-12-18T06:41:46;58.33;;;21.30;;
75169;SDS011;63749;49.186;9.222;2022-12-18T06:44:12;73.80;;;24.27;;
75169;SDS011;63749;49.186;9.222;2022-12-18T06:46:37;65.23;;;22.90;;
75169;SDS011;63749;49.186;9.222;2022-12-18T06:49:02;60.07;;;22.27;;
75169;SDS011;63749;49.186;9.222;2022-12-18T06:51:28;80.07;;;27.08;;
75169;SDS011;63749;49.186;9.222;2022-12-18T06:53:53;85.67;;;29.03;;
75169;SDS011;63749;49.186;9.222;2022-12-18T06:56:19;71.53;;;24.83;;
75169;SDS011;63749;49.186;9.222;2022-12-18T06:58:44;75.07;;;24.70;;
75169;SDS011;63749;49.186;9.222;2022-12-18T07:01:10;66.60;;;21.97;;
75169;SDS011;63749;49.186;9.222;2022-12-18T07:03:37;65.97;;;22.13;;
75169;SDS011;63749;49.186;9.222;2022-12-18T07:06:03;67.15;;;23.42;;
75169;SDS011;63749;49.186;9.222;2022-12-18T07:08:30;68.30;;;23.80;;
75169;SDS011;63749;49.186;9.222;2022-12-18T07:10:56;64.55;;;22.73;;
75169;SDS011;63749;49.186;9.222;2022-12-18T07:13:22;70.32;;;22.13;;
75169;SDS011;63749;49.186;9.222;2022-12-18T07:15:47;63.00;;;22.83;;
75169;SDS011;63749;49.186;9.222;2022-12-18T07:18:13;70.30;;;23.90;;
75169;SDS011;63749;49.186;9.222;2022-12-18T07:20:38;71.05;;;23.75;;
75169;SDS011;63749;49.186;9.222;2022-12-18T07:23:04;67.83;;;23.43;;
75169;SDS011;63749;49.186;9.222;2022-12-18T07:25:30;66.28;;;23.85;;
75169;SDS011;63749;49.186;9.222;2022-12-18T07:27:59;75.78;;;25.95;;
75169;SDS011;63749;49.186;9.222;2022-12-18T07:30:24;73.60;;;25.23;;
75169;SDS011;63749;49.186;9.222;2022-12-18T07:32:50;73.38;;;24.88;;
75169;SDS011;63749;49.186;9.222;2022-12-18T07:35:15;69.05;;;24.23;;
75169;SDS011;63749;49.186;9.222;2022-12-18T07:37:40;69.53;;;24.47;;
75169;SDS011;63749;49.186;9.222;2022-12-18T07:40:06;76.53;;;25.27;;
75169;SDS011;63749;49.186;9.222;2022-12-18T07:42:32;74.13;;;25.77;;
75169;SDS011;63749;49.186;9.222;2022-12-18T07:44:58;80.93;;;26.70;;
75169;SDS011;63749;49.186;9.222;2022-12-18T07:47:24;70.05;;;24.88;;
75169;SDS011;63749;49.186;9.222;2022-12-18T07:49:50;71.30;;;26.03;;
75169;SDS011;63749;49.186;9.222;2022-12-18T07:52:15;67.57;;;23.73;;
75169;SDS011;63749;49.186;9.222;2022-12-18T07:54:40;62.57;;;22.87;;
75169;SDS011;63749;49.186;9.222;2022-12-18T07:57:06;72.30;;;24.85;;
75169;SDS011;63749;49.186;9.222;2022-12-18T07:59:32;63.65;;;22.33;;
75169;SDS011;63749;49.186;9.222;2022-12-18T08:01:57;74.43;;;24.45;;
75169;SDS011;63749;49.186;9.222;2022-12-18T08:04:23;66.00;;;22.43;;
75169;SDS011;63749;49.186;9.222;2022-12-18T08:06:49;70.97;;;23.75;;
75169;SDS011;63749;49.186;9.222;2022-12-18T08:09:14;64.37;;;21.40;;
75169;SDS011;63749;49.186;9.222;2022-12-18T08:11:39;66.80;;;22.77;;
75169;SDS011;63749;49.186;9.222;2022-12-18T08:14:05;70.63;;;23.83;;
75169;SDS011;63749;49.186;9.222;2022-12-18T08:16:30;67.00;;;23.33;;
75169;SDS011;63749;49.186;9.222;2022-12-18T08:18:55;63.70;;;21.23;;
75169;SDS011;63749;49.186;9.222;2022-12-18T08:21:25;59.73;;;20.57;;
75169;SDS011;63749;49.186;9.222;2022-12-18T08:23:53;63.90;;;21.58;;
75169;SDS011;63749;49.186;9.222;2022-12-18T08:26:19;63.53;;;22.40;;
75169;SDS011;63749;49.186;9.222;2022-12-18T08:28:45;60.72;;;22.10;;
75169;SDS011;63749;49.186;9.222;2022-12-18T08:31:11;49.50;;;17.53;;
75169;SDS011;63749;49.186;9.222;2022-12-18T08:33:37;64.03;;;21.10;;
75169;SDS011;63749;49.186;9.222;2022-12-18T08:36:03;64.38;;;22.40;;
75169;SDS011;63749;49.186;9.222;2022-12-18T08:38:30;59.83;;;21.88;;
75169;SDS011;63749;49.186;9.222;2022-12-18T08:41:03;67.18;;;23.05;;
75169;SDS011;63749;49.186;9.222;2022-12-18T08:43:30;64.35;;;21.92;;
75169;SDS011;63749;49.186;9.222;2022-12-18T08:46:17;42.30;;;14.32;;
75169;SDS011;63749;49.186;9.222;2022-12-18T08:48:44;59.47;;;18.48;;
75169;SDS011;63749;49.186;9.222;2022-12-18T08:51:09;44.03;;;15.37;;
75169;SDS011;63749;49.186;9.222;2022-12-18T08:53:35;59.60;;;19.02;;
75169;SDS011;63749;49.186;9.222;2022-12-18T08:56:01;55.22;;;18.35;;
75169;SDS011;63749;49.186;9.222;2022-12-18T08:58:27;51.83;;;18.73;;
75169;SDS011;63749;49.186;9.222;2022-12-18T09:00:53;62.22;;;20.25;;
75169;SDS011;63749;49.186;9.222;2022-12-18T09:03:18;74.77;;;23.40;;
75169;SDS011;63749;49.186;9.222;2022-12-18T09:05:47;59.38;;;20.10;;
75169;SDS011;63749;49.186;9.222;2022-12-18T09:08:13;63.22;;;21.13;;
75169;SDS011;63749;49.186;9.222;2022-12-18T09:10:42;67.10;;;23.13;;
75169;SDS011;63749;49.186;9.222;2022-12-18T09:13:09;66.70;;;23.77;;
75169;SDS011;63749;49.186;9.222;2022-12-18T09:15:41;63.13;;;22.83;;
75169;SDS011;63749;49.186;9.222;2022-12-18T09:18:08;49.55;;;17.80;;
75169;SDS011;63749;49.186;9.222;2022-12-18T09:20:34;50.25;;;17.85;;
75169;SDS011;63749;49.186;9.222;2022-12-18T09:23:00;57.60;;;19.00;;
75169;SDS011;63749;49.186;9.222;2022-12-18T09:25:26;51.10;;;17.92;;
75169;SDS011;63749;49.186;9.222;2022-12-18T09:27:56;53.30;;;18.43;;
75169;SDS011;63749;49.186;9.222;2022-12-18T09:30:22;49.97;;;17.05;;
75169;SDS011;63749;49.186;9.222;2022-12-18T09:32:47;160.57;;;36.00;;
75169;SDS011;63749;49.186;9.222;2022-12-18T09:35:12;203.37;;;42.03;;
75169;SDS011;63749;49.186;9.222;2022-12-18T09:37:38;182.60;;;44.03;;
75169;SDS011;63749;49.186;9.222;2022-12-18T09:40:03;62.17;;;20.77;;
75169;SDS011;63749;49.186;9.222;2022-12-18T09:42:29;59.55;;;21.08;;
75169;SDS011;63749;49.186;9.222;2022-12-18T09:44:55;65.00;;;22.37;;
75169;SDS011;63749;49.186;9.222;2022-12-18T09:47:24;76.45;;;27.83;;
75169;SDS011;63749;49.186;9.222;2022-12-18T09:50:01;63.70;;;23.88;;
75169;SDS011;63749;49.186;9.222;2022-12-18T09:57:54;38.72;;;14.18;;
75169;SDS011;63749;49.186;9.222;2022-12-18T10:00:26;40.88;;;15.27;;
75169;SDS011;63749;49.186;9.222;2022-12-18T10:02:52;46.17;;;15.67;;
75169;SDS011;63749;49.186;9.222;2022-12-18T10:05:34;43.70;;;15.05;;
75169;SDS011;63749;49.186;9.222;2022-12-18T10:11:03;43.58;;;15.15;;
75169;SDS011;63749;49.186;9.222;2022-12-18T10:13:43;44.53;;;15.07;;
75169;SDS011;63749;49.186;9.222;2022-12-18T10:19:24;44.78;;;16.00;;
75169;SDS011;63749;49.186;9.222;2022-12-18T10:25:02;43.67;;;15.05;;
75169;SDS011;63749;49.186;9.222;2022-12-18T10:27:38;48.80;;;16.40;;
75169;SDS011;63749;49.186;9.222;2022-12-18T10:30:11;45.83;;;15.87;;
75169;SDS011;63749;49.186;9.222;2022-12-18T10:32:39;43.47;;;14.93;;
75169;SDS011;63749;49.186;9.222;2022-12-18T10:35:04;45.60;;;15.88;;
75169;SDS011;63749;49.186;9.222;2022-12-18T10:37:30;43.67;;;15.67;;
75169;SDS011;63749;49.186;9.222;2022-12-18T10:40:09;46.07;;;15.83;;
75169;SDS011;63749;49.186;9.222;2022-12-18T10:42:41;48.38;;;15.88;;
75169;SDS011;63749;49.186;9.222;2022-12-18T10:47:45;46.33;;;16.27;;
75169;SDS011;63749;49.186;9.222;2022-12-18T10:50:32;47.57;;;16.27;;
75169;SDS011;63749;49.186;9.222;2022-12-18T10:52:59;45.38;;;15.68;;
75169;SDS011;63749;49.186;9.222;2022-12-18T10:55:31;46.45;;;15.57;;
75169;SDS011;63749;49.186;9.222;2022-12-18T11:03:29;43.50;;;15.40;;
75169;SDS011;63749;49.186;9.222;2022-12-18T11:06:04;44.40;;;15.82;;
75169;SDS011;63749;49.186;9.222;2022-12-18T11:09:01;41.30;;;15.75;;
75169;SDS011;63749;49.186;9.222;2022-12-18T11:11:31;43.28;;;15.57;;
75169;SDS011;63749;49.186;9.222;2022-12-18T11:14:02;45.90;;;14.63;;
75169;SDS011;63749;49.186;9.222;2022-12-18T11:16:46;41.80;;;14.87;;
75169;SDS011;63749;49.186;9.222;2022-12-18T11:21:46;45.13;;;15.98;;
75169;SDS011;63749;49.186;9.222;2022-12-18T11:24:54;47.13;;;15.87;;
75169;SDS011;63749;49.186;9.222;2022-12-18T11:27:02;43.40;;;15.18;;
75169;SDS011;63749;49.186;9.222;2022-12-18T11:29:35;46.15;;;15.95;;
75169;SDS011;63749;49.186;9.222;2022-12-18T11:32:19;45.78;;;15.32;;
75169;SDS011;63749;49.186;9.222;2022-12-18T11:37:39;46.07;;;15.80;;
75169;SDS011;63749;49.186;9.222;2022-12-18T11:40:13;42.95;;;15.35;;
75169;SDS011;63749;49.186;9.222;2022-12-18T11:42:50;45.53;;;16.48;;
75169;SDS011;63749;49.186;9.222;2022-12-18T11:45:29;43.78;;;15.30;;
75169;SDS011;63749;49.186;9.222;2022-12-18T11:50:49;42.20;;;15.43;;
75169;SDS011;63749;49.186;9.222;2022-12-18T11:53:16;43.95;;;15.30;;
75169;SDS011;63749;49.186;9.222;2022-12-18T12:01:48;45.75;;;15.70;;
75169;SDS011;63749;49.186;9.222;2022-12-18T12:04:11;41.63;;;15.73;;
75169;SDS011;63749;49.186;9.222;2022-12-18T12:06:49;43.60;;;15.70;;
75169;SDS011;63749;49.186;9.222;2022-12-18T12:12:45;40.10;;;14.80;;
75169;SDS011;63749;49.186;9.222;2022-12-18T12:15:22;42.55;;;14.93;;
75169;SDS011;63749;49.186;9.222;2022-12-18T12:17:55;43.63;;;15.93;;
75169;SDS011;63749;49.186;9.222;2022-12-18T12:26:17;42.85;;;15.82;;
75169;SDS011;63749;49.186;9.222;2022-12-18T12:34:01;43.40;;;16.13;;
75169;SDS011;63749;49.186;9.222;2022-12-18T12:37:00;47.63;;;17.55;;
75169;SDS011;63749;49.186;9.222;2022-12-18T12:39:44;45.50;;;16.60;;
75169;SDS011;63749;49.186;9.222;2022-12-18T12:42:27;53.55;;;17.67;;
75169;SDS011;63749;49.186;9.222;2022-12-18T12:45:28;44.55;;;16.80;;
75169;SDS011;63749;49.186;9.222;2022-12-18T12:48:00;44.27;;;16.43;;
75169;SDS011;63749;49.186;9.222;2022-12-18T12:50:28;43.33;;;16.27;;
75169;SDS011;63749;49.186;9.222;2022-12-18T12:52:58;44.17;;;16.83;;
75169;SDS011;63749;49.186;9.222;2022-12-18T12:55:26;50.38;;;16.95;;
75169;SDS011;63749;49.186;9.222;2022-12-18T12:58:02;47.55;;;17.48;;
75169;SDS011;63749;49.186;9.222;2022-12-18T13:00:58;45.33;;;16.20;;
75169;SDS011;63749;49.186;9.222;2022-12-18T13:03:41;46.78;;;16.42;;
75169;SDS011;63749;49.186;9.222;2022-12-18T13:06:27;44.80;;;17.05;;
75169;SDS011;63749;49.186;9.222;2022-12-18T13:08:59;40.88;;;15.25;;
75169;SDS011;63749;49.186;9.222;2022-12-18T13:14:27;43.67;;;16.60;;
75169;SDS011;63749;49.186;9.222;2022-12-18T13:17:16;46.80;;;16.15;;
75169;SDS011;63749;49.186;9.222;2022-12-18T13:19:48;43.90;;;16.70;;
75169;SDS011;63749;49.186;9.222;2022-12-18T13:22:29;45.33;;;17.15;;
75169;SDS011;63749;49.186;9.222;2022-12-18T13:24:58;42.20;;;14.77;;
75169;SDS011;63749;49.186;9.222;2022-12-18T13:39:09;44.28;;;15.75;;
75169;SDS011;63749;49.186;9.222;2022-12-18T13:41:46;45.03;;;16.83;;
75169;SDS011;63749;49.186;9.222;2022-12-18T13:47:01;47.90;;;17.55;;
75169;SDS011;63749;49.186;9.222;2022-12-18T13:49:36;45.35;;;16.73;;
75169;SDS011;63749;49.186;9.222;2022-12-18T13:52:14;42.05;;;15.55;;
75169;SDS011;63749;49.186;9.222;2022-12-18T13:54:42;42.17;;;15.07;;
75169;SDS011;63749;49.186;9.222;2022-12-18T13:57:27;47.65;;;17.20;;
75169;SDS011;63749;49.186;9.222;2022-12-18T13:59:52;45.00;;;17.55;;
75169;SDS011;63749;49.186;9.222;2022-12-18T14:02:21;43.90;;;16.80;;
75169;SDS011;63749;49.186;9.222;2022-12-18T14:04:48;49.00;;;17.42;;
75169;SDS011;63749;49.186;9.222;2022-12-18T14:07:15;48.13;;;16.75;;
75169;SDS011;63749;49.186;9.222;2022-12-18T14:09:43;43.50;;;16.35;;
75169;SDS011;63749;49.186;9.222;2022-12-18T14:15:31;45.53;;;16.90;;
75169;SDS011;63749;49.186;9.222;2022-12-18T14:17:57;110.68;;;24.35;;
75169;SDS011;63749;49.186;9.222;2022-12-18T14:20:25;50.28;;;17.80;;
75169;SDS011;63749;49.186;9.222;2022-12-18T14:22:52;49.20;;;17.63;;
75169;SDS011;63749;49.186;9.222;2022-12-18T14:25:19;44.63;;;16.03;;
75169;SDS011;63749;49.186;9.222;2022-12-18T14:30:35;42.80;;;16.00;;
75169;SDS011;63749;49.186;9.222;2022-12-18T14:40:53;42.45;;;15.35;;
75169;SDS011;63749;49.186;9.222;2022-12-18T14:43:26;41.08;;;14.98;;
75169;SDS011;63749;49.186;9.222;2022-12-18T14:45:53;42.23;;;15.90;;
75169;SDS011;63749;49.186;9.222;2022-12-18T14:50:54;42.45;;;15.85;;
75169;SDS011;63749;49.186;9.222;2022-12-18T14:53:23;44.92;;;15.85;;
75169;SDS011;63749;49.186;9.222;2022-12-18T14:55:57;35.92;;;14.80;;
75169;SDS011;63749;49.186;9.222;2022-12-18T14:58:23;45.97;;;15.97;;
75169;SDS011;63749;49.186;9.222;2022-12-18T15:00:48;38.90;;;15.07;;
75169;SDS011;63749;49.186;9.222;2022-12-18T15:03:17;40.95;;;15.23;;
75169;SDS011;63749;49.186;9.222;2022-12-18T15:05:44;40.40;;;15.53;;
75169;SDS011;63749;49.186;9.222;2022-12-18T15:08:30;41.30;;;16.48;;
75169;SDS011;63749;49.186;9.222;2022-12-18T15:11:02;42.13;;;15.85;;
75169;SDS011;63749;49.186;9.222;2022-12-18T15:13:27;48.73;;;17.23;;
75169;SDS011;63749;49.186;9.222;2022-12-18T15:15:54;48.08;;;18.25;;
75169;SDS011;63749;49.186;9.222;2022-12-18T15:18:25;50.88;;;18.73;;
75169;SDS011;63749;49.186;9.222;2022-12-18T15:21:09;52.37;;;18.43;;
75169;SDS011;63749;49.186;9.222;2022-12-18T15:23:48;53.90;;;19.30;;
75169;SDS011;63749;49.186;9.222;2022-12-18T15:26:16;51.75;;;18.90;;
75169;SDS011;63749;49.186;9.222;2022-12-18T15:28:50;50.00;;;19.23;;
75169;SDS011;63749;49.186;9.222;2022-12-18T15:31:22;50.10;;;19.13;;
75169;SDS011;63749;49.186;9.222;2022-12-18T15:34:21;48.93;;;19.50;;
75169;SDS011;63749;49.186;9.222;2022-12-18T15:36:46;48.33;;;17.77;;
75169;SDS011;63749;49.186;9.222;2022-12-18T15:39:12;47.83;;;16.75;;
75169;SDS011;63749;49.186;9.222;2022-12-18T15:41:38;51.17;;;18.33;;
75169;SDS011;63749;49.186;9.222;2022-12-18T15:44:15;57.65;;;20.67;;
75169;SDS011;63749;49.186;9.222;2022-12-18T15:46:47;62.05;;;21.17;;
75169;SDS011;63749;49.186;9.222;2022-12-18T15:49:13;56.60;;;19.87;;
75169;SDS011;63749;49.186;9.222;2022-12-18T15:51:38;59.23;;;21.00;;
75169;SDS011;63749;49.186;9.222;2022-12-18T15:54:04;56.80;;;20.80;;
75169;SDS011;63749;49.186;9.222;2022-12-18T15:56:34;59.50;;;20.00;;
75169;SDS011;63749;49.186;9.222;2022-12-18T15:59:19;55.45;;;19.48;;
75169;SDS011;63749;49.186;9.222;2022-12-18T16:01:49;54.25;;;20.67;;
75169;SDS011;63749;49.186;9.222;2022-12-18T16:04:16;60.90;;;22.23;;
75169;SDS011;63749;49.186;9.222;2022-12-18T16:06:45;57.70;;;20.58;;
75169;SDS011;63749;49.186;9.222;2022-12-18T16:09:11;73.07;;;25.67;;
75169;SDS011;63749;49.186;9.222;2022-12-18T16:11:36;69.40;;;26.00;;
75169;SDS011;63749;49.186;9.222;2022-12-18T16:14:04;70.30;;;25.42;;
75169;SDS011;63749;49.186;9.222;2022-12-18T16:16:45;72.87;;;26.23;;
75169;SDS011;63749;49.186;9.222;2022-12-18T16:19:12;70.28;;;25.08;;
75169;SDS011;63749;49.186;9.222;2022-12-18T16:21:38;67.68;;;24.65;;
75169;SDS011;63749;49.186;9.222;2022-12-18T16:24:03;61.43;;;23.37;;
75169;SDS011;63749;49.186;9.222;2022-12-18T16:26:29;57.78;;;22.58;;
75169;SDS011;63749;49.186;9.222;2022-12-18T16:28:57;62.40;;;21.17;;